sensor_id;sensor_type;location;lat;lon;timestamp;P1;durP1;ratioP1;P2;durP2;ratioP2
19505;SDS011;9894;50.852;-0.140;2023-09-07T00:00:47;1.33;;;1.27;;
19505;SDS011;9894;50.852;-0.140;2023-09-07T00:03:13;0.60;;;0.60;;
19505;SDS011;9894;50.852;-0.140;2023-09-07T00:05:40;3.30;;;1.17;;
19505;SDS011;9894;50.852;-0.140;2023-09-07T00:08:06;1.20;;;1.10;;
19505;SDS011;9894;50.852;-0.140;2023-09-07T00:10:32;0.85;;;0.85;;
19505;SDS011;9894;50.852;-0.140;2023-09-07T00:13:02;0.20;;;0.20;;
19505;SDS011;9894;50.852;-0.140;2023-09-07T00:15:29;1.05;;;1.00;;
19505;SDS011;9894;50.852;-0.140;2023-09-07T00:17:55;0.20;;;0.20;;
19505;SDS011;9894;50.852;-0.140;2023-09-07T00:20:22;0.63;;;0.63;;
19505;SDS011;9894;50.852;-0.140;2023-09-07T00:22:49;7.38;;;1.52;;
19505;SDS011;9894;50.852;-0.140;2023-09-07T00:25:15;0.70;;;0.70;;
19505;SDS011;9894;50.852;-0.140;2023-09-07T00:27:41;5.18;;;1.10;;
19505;SDS011;9894;50.852;-0.140;2023-09-07T00:30:08;1.30;;;0.65;;
19505;SDS011;9894;50.852;-0.140;2023-09-07T00:32:37;3.65;;;1.75;;
19505;SDS011;9894;50.852;-0.140;2023-09-07T00:35:04;0.35;;;0.35;;
19505;SDS011;9894;50.852;-0.140;2023-09-07T00:37:31;0.38;;;0.38;;
19505;SDS011;9894;50.852;-0.140;2023-09-07T00:39:57;1.00;;;1.00;;
19505;SDS011;9894;50.852;-0.140;2023-09-07T00:42:23;0.20;;;0.20;;
19505;SDS011;9894;50.852;-0.140;2023-09-07T00:44:50;0.88;;;0.63;;
19505;SDS011;9894;50.852;-0.140;2023-09-07T00:47:16;0.30;;;0.30;;
19505;SDS011;9894;50.852;-0.140;2023-09-07T00:49:42;1.40;;;0.50;;
19505;SDS011;9894;50.852;-0.140;2023-09-07T00:52:09;1.27;;;0.70;;
19505;SDS011;9894;50.852;-0.140;2023-09-07T00:54:36;0.20;;;0.20;;
19505;SDS011;9894;50.852;-0.140;2023-09-07T00:57:04;0.30;;;0.30;;
19505;SDS011;9894;50.852;-0.140;2023-09-07T00:59:34;0.40;;;0.40;;
19505;SDS011;9894;50.852;-0.140;2023-09-07T01:02:00;1.65;;;1.20;;
19505;SDS011;9894;50.852;-0.140;2023-09-07T01:04:26;1.45;;;1.35;;
19505;SDS011;9894;50.852;-0.140;2023-09-07T01:06:56;0.60;;;0.60;;
19505;SDS011;9894;50.852;-0.140;2023-09-07T01:09:26;1.65;;;1.00;;
19505;SDS011;9894;50.852;-0.140;2023-09-07T01:11:53;0.93;;;0.93;;
19505;SDS011;9894;50.852;-0.140;2023-09-07T01:14:19;6.65;;;1.73;;
19505;SDS011;9894;50.852;-0.140;2023-09-07T01:16:46;0.50;;;0.50;;
19505;SDS011;9894;50.852;-0.140;2023-09-07T01:19:13;0.70;;;0.70;;
19505;SDS011;9894;50.852;-0.140;2023-09-07T01:21:39;0.52;;;0.52;;
19505;SDS011;9894;50.852;-0.140;2023-09-07T01:24:09;2.35;;;2.15;;
19505;SDS011;9894;50.852;-0.140;2023-09-07T01:26:35;0.82;;;0.82;;
19505;SDS011;9894;50.852;-0.140;2023-09-07T01:29:05;0.80;;;0.80;;
19505;SDS011;9894;50.852;-0.140;2023-09-07T01:31:37;0.50;;;0.50;;
19505;SDS011;9894;50.852;-0.140;2023-09-07T01:34:04;0.75;;;0.75;;
19505;SDS011;9894;50.852;-0.140;2023-09-07T01:36:31;1.20;;;1.20;;
19505;SDS011;9894;50.852;-0.140;2023-09-07T01:38:57;0.50;;;0.50;;
19505;SDS011;9894;50.852;-0.140;2023-09-07T01:41:24;1.70;;;0.80;;
19505;SDS011;9894;50.852;-0.140;2023-09-07T01:43:50;0.52;;;0.52;;
19505;SDS011;9894;50.852;-0.140;2023-09-07T01:46:17;0.50;;;0.50;;
19505;SDS011;9894;50.852;-0.140;2023-09-07T01:48:43;0.70;;;0.70;;
19505;SDS011;9894;50.852;-0.140;2023-09-07T01:51:09;0.50;;;0.50;;
19505;SDS011;9894;50.852;-0.140;2023-09-07T01:53:35;0.50;;;0.50;;
19505;SDS011;9894;50.852;-0.140;2023-09-07T01:56:02;0.60;;;0.60;;
19505;SDS011;9894;50.852;-0.140;2023-09-07T01:58:28;1.02;;;1.02;;
19505;SDS011;9894;50.852;-0.140;2023-09-07T02:00:57;0.50;;;0.50;;
19505;SDS011;9894;50.852;-0.140;2023-09-07T02:03:24;0.50;;;0.50;;
19505;SDS011;9894;50.852;-0.140;2023-09-07T02:05:50;0.30;;;0.30;;
19505;SDS011;9894;50.852;-0.140;2023-09-07T02:08:16;0.22;;;0.22;;
19505;SDS011;9894;50.852;-0.140;2023-09-07T02:10:42;0.30;;;0.30;;
19505;SDS011;9894;50.852;-0.140;2023-09-07T02:13:08;0.30;;;0.30;;
19505;SDS011;9894;50.852;-0.140;2023-09-07T02:15:38;0.52;;;0.52;;
19505;SDS011;9894;50.852;-0.140;2023-09-07T02:18:05;1.08;;;1.02;;
19505;SDS011;9894;50.852;-0.140;2023-09-07T02:20:32;0.30;;;0.30;;
19505;SDS011;9894;50.852;-0.140;2023-09-07T02:22:58;0.77;;;0.60;;
19505;SDS011;9894;50.852;-0.140;2023-09-07T02:25:24;4.72;;;1.48;;
19505;SDS011;9894;50.852;-0.140;2023-09-07T02:27:52;2.05;;;1.85;;
19505;SDS011;9894;50.852;-0.140;2023-09-07T02:30:18;1.90;;;1.80;;
19505;SDS011;9894;50.852;-0.140;2023-09-07T02:32:45;1.10;;;1.00;;
19505;SDS011;9894;50.852;-0.140;2023-09-07T02:35:11;8.52;;;1.60;;
19505;SDS011;9894;50.852;-0.140;2023-09-07T02:37:37;2.38;;;0.95;;
19505;SDS011;9894;50.852;-0.140;2023-09-07T02:40:03;3.72;;;1.98;;
19505;SDS011;9894;50.852;-0.140;2023-09-07T02:42:37;6.88;;;1.23;;
19505;SDS011;9894;50.852;-0.140;2023-09-07T02:45:04;3.13;;;1.60;;
19505;SDS011;9894;50.852;-0.140;2023-09-07T02:47:30;0.60;;;0.60;;
19505;SDS011;9894;50.852;-0.140;2023-09-07T02:49:56;2.28;;;1.33;;
19505;SDS011;9894;50.852;-0.140;2023-09-07T02:52:22;0.45;;;0.45;;
19505;SDS011;9894;50.852;-0.140;2023-09-07T02:54:49;0.63;;;0.63;;
19505;SDS011;9894;50.852;-0.140;2023-09-07T02:57:15;0.40;;;0.40;;
19505;SDS011;9894;50.852;-0.140;2023-09-07T02:59:41;0.47;;;0.47;;
19505;SDS011;9894;50.852;-0.140;2023-09-07T03:02:07;0.40;;;0.40;;
19505;SDS011;9894;50.852;-0.140;2023-09-07T03:04:34;2.03;;;1.70;;
19505;SDS011;9894;50.852;-0.140;2023-09-07T03:07:01;0.45;;;0.43;;
19505;SDS011;9894;50.852;-0.140;2023-09-07T03:09:27;3.58;;;2.97;;
19505;SDS011;9894;50.852;-0.140;2023-09-07T03:11:53;0.57;;;0.57;;
19505;SDS011;9894;50.852;-0.140;2023-09-07T03:14:21;0.20;;;0.20;;
19505;SDS011;9894;50.852;-0.140;2023-09-07T03:16:47;0.50;;;0.50;;
19505;SDS011;9894;50.852;-0.140;2023-09-07T03:19:15;0.40;;;0.40;;
19505;SDS011;9894;50.852;-0.140;2023-09-07T03:21:41;0.35;;;0.35;;
19505;SDS011;9894;50.852;-0.140;2023-09-07T03:24:08;0.20;;;0.20;;
19505;SDS011;9894;50.852;-0.140;2023-09-07T03:26:34;0.35;;;0.35;;
19505;SDS011;9894;50.852;-0.140;2023-09-07T03:29:00;0.40;;;0.40;;
19505;SDS011;9894;50.852;-0.140;2023-09-07T03:31:28;0.45;;;0.45;;
19505;SDS011;9894;50.852;-0.140;2023-09-07T03:33:54;0.22;;;0.22;;
19505;SDS011;9894;50.852;-0.140;2023-09-07T03:36:21;6.35;;;3.25;;
19505;SDS011;9894;50.852;-0.140;2023-09-07T03:38:48;3.92;;;1.95;;
19505;SDS011;9894;50.852;-0.140;2023-09-07T03:41:15;1.85;;;1.50;;
19505;SDS011;9894;50.852;-0.140;2023-09-07T03:43:41;0.30;;;0.30;;
19505;SDS011;9894;50.852;-0.140;2023-09-07T03:46:08;0.40;;;0.40;;
19505;SDS011;9894;50.852;-0.140;2023-09-07T03:48:34;0.20;;;0.20;;
19505;SDS011;9894;50.852;-0.140;2023-09-07T03:51:00;0.20;;;0.20;;
19505;SDS011;9894;50.852;-0.140;2023-09-07T03:53:27;0.20;;;0.20;;
19505;SDS011;9894;50.852;-0.140;2023-09-07T03:55:53;0.20;;;0.20;;
19505;SDS011;9894;50.852;-0.140;2023-09-07T03:58:19;0.20;;;0.20;;
19505;SDS011;9894;50.852;-0.140;2023-09-07T04:00:45;0.20;;;0.20;;
19505;SDS011;9894;50.852;-0.140;2023-09-07T04:03:12;2.38;;;0.90;;
19505;SDS011;9894;50.852;-0.140;2023-09-07T04:05:41;0.20;;;0.20;;
19505;SDS011;9894;50.852;-0.140;2023-09-07T04:08:08;3.03;;;1.42;;
19505;SDS011;9894;50.852;-0.140;2023-09-07T04:10:37;1.00;;;0.60;;
19505;SDS011;9894;50.852;-0.140;2023-09-07T04:13:04;1.55;;;0.65;;
19505;SDS011;9894;50.852;-0.140;2023-09-07T04:15:30;0.73;;;0.73;;
19505;SDS011;9894;50.852;-0.140;2023-09-07T04:17:56;0.30;;;0.30;;
19505;SDS011;9894;50.852;-0.140;2023-09-07T04:20:24;0.20;;;0.20;;
19505;SDS011;9894;50.852;-0.140;2023-09-07T04:22:51;0.20;;;0.20;;
19505;SDS011;9894;50.852;-0.140;2023-09-07T04:25:17;0.50;;;0.50;;
19505;SDS011;9894;50.852;-0.140;2023-09-07T04:27:43;0.10;;;0.10;;
19505;SDS011;9894;50.852;-0.140;2023-09-07T04:30:10;0.10;;;0.10;;
19505;SDS011;9894;50.852;-0.140;2023-09-07T04:32:36;1.33;;;1.23;;
19505;SDS011;9894;50.852;-0.140;2023-09-07T04:35:02;0.10;;;0.10;;
19505;SDS011;9894;50.852;-0.140;2023-09-07T04:37:29;0.10;;;0.10;;
19505;SDS011;9894;50.852;-0.140;2023-09-07T04:39:55;0.35;;;0.35;;
19505;SDS011;9894;50.852;-0.140;2023-09-07T04:42:21;0.95;;;0.63;;
19505;SDS011;9894;50.852;-0.140;2023-09-07T04:44:48;0.10;;;0.10;;
19505;SDS011;9894;50.852;-0.140;2023-09-07T04:47:14;0.20;;;0.20;;
19505;SDS011;9894;50.852;-0.140;2023-09-07T04:49:48;2.08;;;1.27;;
19505;SDS011;9894;50.852;-0.140;2023-09-07T04:52:16;0.10;;;0.10;;
19505;SDS011;9894;50.852;-0.140;2023-09-07T04:54:43;1.30;;;1.27;;
19505;SDS011;9894;50.852;-0.140;2023-09-07T04:57:09;2.17;;;1.98;;
19505;SDS011;9894;50.852;-0.140;2023-09-07T04:59:35;0.20;;;0.20;;
19505;SDS011;9894;50.852;-0.140;2023-09-07T05:02:02;0.32;;;0.32;;
19505;SDS011;9894;50.852;-0.140;2023-09-07T05:04:28;1.88;;;1.15;;
19505;SDS011;9894;50.852;-0.140;2023-09-07T05:06:58;3.30;;;1.60;;
19505;SDS011;9894;50.852;-0.140;2023-09-07T05:09:24;0.20;;;0.20;;
19505;SDS011;9894;50.852;-0.140;2023-09-07T05:11:53;0.50;;;0.50;;
19505;SDS011;9894;50.852;-0.140;2023-09-07T05:14:19;2.47;;;1.63;;
19505;SDS011;9894;50.852;-0.140;2023-09-07T05:16:46;5.50;;;2.50;;
19505;SDS011;9894;50.852;-0.140;2023-09-07T05:19:14;1.77;;;1.65;;
19505;SDS011;9894;50.852;-0.140;2023-09-07T05:21:40;3.92;;;2.08;;
19505;SDS011;9894;50.852;-0.140;2023-09-07T05:24:06;11.52;;;4.50;;
19505;SDS011;9894;50.852;-0.140;2023-09-07T05:29:55;6.85;;;4.35;;
19505;SDS011;9894;50.852;-0.140;2023-09-07T05:32:21;0.57;;;0.57;;
19505;SDS011;9894;50.852;-0.140;2023-09-07T05:34:47;6.35;;;1.75;;
19505;SDS011;9894;50.852;-0.140;2023-09-07T05:37:13;8.65;;;3.15;;
19505;SDS011;9894;50.852;-0.140;2023-09-07T05:39:39;0.82;;;0.82;;
19505;SDS011;9894;50.852;-0.140;2023-09-07T05:42:06;1.33;;;0.90;;
19505;SDS011;9894;50.852;-0.140;2023-09-07T05:44:32;3.22;;;2.78;;
19505;SDS011;9894;50.852;-0.140;2023-09-07T05:46:58;3.42;;;2.85;;
19505;SDS011;9894;50.852;-0.140;2023-09-07T05:49:24;10.75;;;3.78;;
19505;SDS011;9894;50.852;-0.140;2023-09-07T05:51:51;2.05;;;1.40;;
19505;SDS011;9894;50.852;-0.140;2023-09-07T05:54:17;2.47;;;1.75;;
19505;SDS011;9894;50.852;-0.140;2023-09-07T05:56:43;2.45;;;1.58;;
19505;SDS011;9894;50.852;-0.140;2023-09-07T05:59:09;0.63;;;0.63;;
19505;SDS011;9894;50.852;-0.140;2023-09-07T06:01:35;7.03;;;2.45;;
19505;SDS011;9894;50.852;-0.140;2023-09-07T06:04:02;9.30;;;3.72;;
19505;SDS011;9894;50.852;-0.140;2023-09-07T06:06:28;2.88;;;2.17;;
19505;SDS011;9894;50.852;-0.140;2023-09-07T06:08:55;4.68;;;2.60;;
19505;SDS011;9894;50.852;-0.140;2023-09-07T06:11:21;5.22;;;2.20;;
19505;SDS011;9894;50.852;-0.140;2023-09-07T06:13:47;4.35;;;2.63;;
19505;SDS011;9894;50.852;-0.140;2023-09-07T06:16:14;3.00;;;2.80;;
19505;SDS011;9894;50.852;-0.140;2023-09-07T06:18:40;2.38;;;2.05;;
19505;SDS011;9894;50.852;-0.140;2023-09-07T06:21:07;1.35;;;0.82;;
19505;SDS011;9894;50.852;-0.140;2023-09-07T06:23:33;1.83;;;1.73;;
19505;SDS011;9894;50.852;-0.140;2023-09-07T06:25:59;4.68;;;2.15;;
19505;SDS011;9894;50.852;-0.140;2023-09-07T06:28:26;1.85;;;0.90;;
19505;SDS011;9894;50.852;-0.140;2023-09-07T06:30:52;3.03;;;2.58;;
19505;SDS011;9894;50.852;-0.140;2023-09-07T06:33:19;2.38;;;2.17;;
19505;SDS011;9894;50.852;-0.140;2023-09-07T06:35:45;7.97;;;3.83;;
19505;SDS011;9894;50.852;-0.140;2023-09-07T06:38:11;4.30;;;2.15;;
19505;SDS011;9894;50.852;-0.140;2023-09-07T06:40:37;4.10;;;2.25;;
19505;SDS011;9894;50.852;-0.140;2023-09-07T06:43:03;3.85;;;2.20;;
19505;SDS011;9894;50.852;-0.140;2023-09-07T06:45:36;14.00;;;3.00;;
19505;SDS011;9894;50.852;-0.140;2023-09-07T06:48:03;1.73;;;1.63;;
19505;SDS011;9894;50.852;-0.140;2023-09-07T06:50:29;2.90;;;2.15;;
19505;SDS011;9894;50.852;-0.140;2023-09-07T06:52:55;5.35;;;2.85;;
19505;SDS011;9894;50.852;-0.140;2023-09-07T06:55:21;9.90;;;3.88;;
19505;SDS011;9894;50.852;-0.140;2023-09-07T06:57:48;7.13;;;3.92;;
19505;SDS011;9894;50.852;-0.140;2023-09-07T07:00:14;4.05;;;1.90;;
19505;SDS011;9894;50.852;-0.140;2023-09-07T07:02:40;5.75;;;1.90;;
19505;SDS011;9894;50.852;-0.140;2023-09-07T07:05:07;1.27;;;0.73;;
19505;SDS011;9894;50.852;-0.140;2023-09-07T07:07:33;2.22;;;2.03;;
19505;SDS011;9894;50.852;-0.140;2023-09-07T07:09:59;1.35;;;0.75;;
19505;SDS011;9894;50.852;-0.140;2023-09-07T07:12:26;2.30;;;1.92;;
19505;SDS011;9894;50.852;-0.140;2023-09-07T07:14:52;4.05;;;2.78;;
19505;SDS011;9894;50.852;-0.140;2023-09-07T07:17:18;5.70;;;3.50;;
19505;SDS011;9894;50.852;-0.140;2023-09-07T07:19:44;3.25;;;1.70;;
19505;SDS011;9894;50.852;-0.140;2023-09-07T07:22:12;4.25;;;1.90;;
19505;SDS011;9894;50.852;-0.140;2023-09-07T07:24:39;1.05;;;0.98;;
19505;SDS011;9894;50.852;-0.140;2023-09-07T07:27:05;2.17;;;1.98;;
19505;SDS011;9894;50.852;-0.140;2023-09-07T07:29:31;4.85;;;2.05;;
19505;SDS011;9894;50.852;-0.140;2023-09-07T07:31:57;5.20;;;3.03;;
19505;SDS011;9894;50.852;-0.140;2023-09-07T07:34:24;5.15;;;3.30;;
19505;SDS011;9894;50.852;-0.140;2023-09-07T07:36:50;3.22;;;2.50;;
19505;SDS011;9894;50.852;-0.140;2023-09-07T07:39:17;0.50;;;0.50;;
19505;SDS011;9894;50.852;-0.140;2023-09-07T07:41:43;1.13;;;1.10;;
19505;SDS011;9894;50.852;-0.140;2023-09-07T07:44:10;3.63;;;1.95;;
19505;SDS011;9894;50.852;-0.140;2023-09-07T07:46:36;0.85;;;0.85;;
19505;SDS011;9894;50.852;-0.140;2023-09-07T07:49:03;0.80;;;0.80;;
19505;SDS011;9894;50.852;-0.140;2023-09-07T07:51:29;7.18;;;3.97;;
19505;SDS011;9894;50.852;-0.140;2023-09-07T07:53:55;2.53;;;1.58;;
19505;SDS011;9894;50.852;-0.140;2023-09-07T07:56:23;7.13;;;2.97;;
19505;SDS011;9894;50.852;-0.140;2023-09-07T07:58:49;4.22;;;3.10;;
19505;SDS011;9894;50.852;-0.140;2023-09-07T08:01:16;1.00;;;1.00;;
19505;SDS011;9894;50.852;-0.140;2023-09-07T08:03:42;2.45;;;2.25;;
19505;SDS011;9894;50.852;-0.140;2023-09-07T08:06:09;3.13;;;2.92;;
19505;SDS011;9894;50.852;-0.140;2023-09-07T08:08:36;2.55;;;2.20;;
19505;SDS011;9894;50.852;-0.140;2023-09-07T08:11:02;2.95;;;2.55;;
19505;SDS011;9894;50.852;-0.140;2023-09-07T08:13:34;1.98;;;1.88;;
19505;SDS011;9894;50.852;-0.140;2023-09-07T08:16:01;1.65;;;1.55;;
19505;SDS011;9894;50.852;-0.140;2023-09-07T08:18:27;1.50;;;1.50;;
19505;SDS011;9894;50.852;-0.140;2023-09-07T08:20:54;2.10;;;2.00;;
19505;SDS011;9894;50.852;-0.140;2023-09-07T08:23:20;1.35;;;1.35;;
19505;SDS011;9894;50.852;-0.140;2023-09-07T08:25:48;1.30;;;1.30;;
19505;SDS011;9894;50.852;-0.140;2023-09-07T08:28:14;2.45;;;2.08;;
19505;SDS011;9894;50.852;-0.140;2023-09-07T08:30:43;1.92;;;1.83;;
19505;SDS011;9894;50.852;-0.140;2023-09-07T08:33:09;1.70;;;1.70;;
19505;SDS011;9894;50.852;-0.140;2023-09-07T08:35:35;1.60;;;1.60;;
19505;SDS011;9894;50.852;-0.140;2023-09-07T08:38:11;1.63;;;1.63;;
19505;SDS011;9894;50.852;-0.140;2023-09-07T08:40:38;2.20;;;2.10;;
19505;SDS011;9894;50.852;-0.140;2023-09-07T08:43:08;2.10;;;2.00;;
19505;SDS011;9894;50.852;-0.140;2023-09-07T08:45:38;2.30;;;2.20;;
19505;SDS011;9894;50.852;-0.140;2023-09-07T08:48:07;3.33;;;3.13;;
19505;SDS011;9894;50.852;-0.140;2023-09-07T08:50:34;2.97;;;2.88;;
19505;SDS011;9894;50.852;-0.140;2023-09-07T08:53:03;2.75;;;2.65;;
19505;SDS011;9894;50.852;-0.140;2023-09-07T08:55:29;9.23;;;4.18;;
19505;SDS011;9894;50.852;-0.140;2023-09-07T08:57:56;4.57;;;4.20;;
19505;SDS011;9894;50.852;-0.140;2023-09-07T09:00:22;4.00;;;3.80;;
19505;SDS011;9894;50.852;-0.140;2023-09-07T09:02:48;4.40;;;4.20;;
19505;SDS011;9894;50.852;-0.140;2023-09-07T09:05:15;4.57;;;4.30;;
19505;SDS011;9894;50.852;-0.140;2023-09-07T09:07:43;5.28;;;4.97;;
19505;SDS011;9894;50.852;-0.140;2023-09-07T09:10:09;7.15;;;6.47;;
19505;SDS011;9894;50.852;-0.140;2023-09-07T09:12:36;6.97;;;6.57;;
19505;SDS011;9894;50.852;-0.140;2023-09-07T09:15:11;8.63;;;8.07;;
19505;SDS011;9894;50.852;-0.140;2023-09-07T09:17:37;9.70;;;9.02;;
19505;SDS011;9894;50.852;-0.140;2023-09-07T09:20:04;10.10;;;9.40;;
19505;SDS011;9894;50.852;-0.140;2023-09-07T09:22:35;10.70;;;10.00;;
19505;SDS011;9894;50.852;-0.140;2023-09-07T09:25:04;10.93;;;10.23;;
19505;SDS011;9894;50.852;-0.140;2023-09-07T09:27:30;12.45;;;11.45;;
19505;SDS011;9894;50.852;-0.140;2023-09-07T09:29:57;12.30;;;11.50;;
19505;SDS011;9894;50.852;-0.140;2023-09-07T09:32:23;13.15;;;12.25;;
19505;SDS011;9894;50.852;-0.140;2023-09-07T09:34:50;13.95;;;13.05;;
19505;SDS011;9894;50.852;-0.140;2023-09-07T09:37:16;12.90;;;12.10;;
19505;SDS011;9894;50.852;-0.140;2023-09-07T09:39:47;13.65;;;12.75;;
19505;SDS011;9894;50.852;-0.140;2023-09-07T09:42:14;14.45;;;13.55;;
19505;SDS011;9894;50.852;-0.140;2023-09-07T09:44:41;15.05;;;14.05;;
19505;SDS011;9894;50.852;-0.140;2023-09-07T09:47:08;15.38;;;14.38;;
19505;SDS011;9894;50.852;-0.140;2023-09-07T09:49:36;18.05;;;16.75;;
19505;SDS011;9894;50.852;-0.140;2023-09-07T09:52:04;14.30;;;13.40;;
19505;SDS011;9894;50.852;-0.140;2023-09-07T09:54:32;17.02;;;15.88;;
19505;SDS011;9894;50.852;-0.140;2023-09-07T09:57:00;15.27;;;14.27;;
19505;SDS011;9894;50.852;-0.140;2023-09-07T09:59:26;17.75;;;16.65;;
19505;SDS011;9894;50.852;-0.140;2023-09-07T10:01:52;15.52;;;14.52;;
19505;SDS011;9894;50.852;-0.140;2023-09-07T10:04:19;15.10;;;14.10;;
19505;SDS011;9894;50.852;-0.140;2023-09-07T10:06:53;14.27;;;13.38;;
19505;SDS011;9894;50.852;-0.140;2023-09-07T10:09:20;13.90;;;13.00;;
19505;SDS011;9894;50.852;-0.140;2023-09-07T10:11:50;16.17;;;13.88;;
19505;SDS011;9894;50.852;-0.140;2023-09-07T10:14:18;13.20;;;12.30;;
19505;SDS011;9894;50.852;-0.140;2023-09-07T10:16:48;16.10;;;15.10;;
19505;SDS011;9894;50.852;-0.140;2023-09-07T10:19:18;14.00;;;13.10;;
19505;SDS011;9894;50.852;-0.140;2023-09-07T10:21:46;13.40;;;12.50;;
19505;SDS011;9894;50.852;-0.140;2023-09-07T10:27:07;13.07;;;12.20;;
19505;SDS011;9894;50.852;-0.140;2023-09-07T10:29:43;12.88;;;12.07;;
19505;SDS011;9894;50.852;-0.140;2023-09-07T10:32:10;12.80;;;11.90;;
19505;SDS011;9894;50.852;-0.140;2023-09-07T10:34:38;11.55;;;10.75;;
19505;SDS011;9894;50.852;-0.140;2023-09-07T10:37:08;10.68;;;9.98;;
19505;SDS011;9894;50.852;-0.140;2023-09-07T10:39:37;10.35;;;9.65;;
19505;SDS011;9894;50.852;-0.140;2023-09-07T10:42:04;9.85;;;9.18;;
19505;SDS011;9894;50.852;-0.140;2023-09-07T10:44:30;9.05;;;8.45;;
19505;SDS011;9894;50.852;-0.140;2023-09-07T10:46:56;10.80;;;10.10;;
19505;SDS011;9894;50.852;-0.140;2023-09-07T10:49:23;8.75;;;8.15;;
19505;SDS011;9894;50.852;-0.140;2023-09-07T10:51:49;10.40;;;9.70;;
19505;SDS011;9894;50.852;-0.140;2023-09-07T10:54:22;10.85;;;9.77;;
19505;SDS011;9894;50.852;-0.140;2023-09-07T10:56:49;7.65;;;7.15;;
19505;SDS011;9894;50.852;-0.140;2023-09-07T10:59:16;8.45;;;7.85;;
19505;SDS011;9894;50.852;-0.140;2023-09-07T11:01:45;7.32;;;6.82;;
19505;SDS011;9894;50.852;-0.140;2023-09-07T11:04:13;8.30;;;7.60;;
19505;SDS011;9894;50.852;-0.140;2023-09-07T11:06:41;7.75;;;7.25;;
19505;SDS011;9894;50.852;-0.140;2023-09-07T11:09:08;8.88;;;8.18;;
19505;SDS011;9894;50.852;-0.140;2023-09-07T11:11:36;7.53;;;7.03;;
19505;SDS011;9894;50.852;-0.140;2023-09-07T11:14:03;7.95;;;7.45;;
19505;SDS011;9894;50.852;-0.140;2023-09-07T11:16:30;7.22;;;6.72;;
19505;SDS011;9894;50.852;-0.140;2023-09-07T11:18:56;7.10;;;6.60;;
19505;SDS011;9894;50.852;-0.140;2023-09-07T11:21:23;8.07;;;7.47;;
19505;SDS011;9894;50.852;-0.140;2023-09-07T11:23:51;9.50;;;8.15;;
19505;SDS011;9894;50.852;-0.140;2023-09-07T11:26:17;5.70;;;5.40;;
19505;SDS011;9894;50.852;-0.140;2023-09-07T11:28:46;6.30;;;5.90;;
19505;SDS011;9894;50.852;-0.140;2023-09-07T11:31:12;6.43;;;5.97;;
19505;SDS011;9894;50.852;-0.140;2023-09-07T11:33:40;6.28;;;5.82;;
19505;SDS011;9894;50.852;-0.140;2023-09-07T11:36:07;5.90;;;5.50;;
19505;SDS011;9894;50.852;-0.140;2023-09-07T11:38:36;5.97;;;5.57;;
19505;SDS011;9894;50.852;-0.140;2023-09-07T11:41:05;5.88;;;5.50;;
19505;SDS011;9894;50.852;-0.140;2023-09-07T11:43:32;5.40;;;5.10;;
19505;SDS011;9894;50.852;-0.140;2023-09-07T11:45:58;5.70;;;5.40;;
19505;SDS011;9894;50.852;-0.140;2023-09-07T11:48:26;7.22;;;5.50;;
19505;SDS011;9894;50.852;-0.140;2023-09-07T11:50:53;5.40;;;5.10;;
19505;SDS011;9894;50.852;-0.140;2023-09-07T11:53:19;5.30;;;5.00;;
19505;SDS011;9894;50.852;-0.140;2023-09-07T11:55:45;5.00;;;4.70;;
19505;SDS011;9894;50.852;-0.140;2023-09-07T11:58:12;6.32;;;5.80;;
19505;SDS011;9894;50.852;-0.140;2023-09-07T12:00:38;5.13;;;4.82;;
19505;SDS011;9894;50.852;-0.140;2023-09-07T12:03:06;5.05;;;4.75;;
19505;SDS011;9894;50.852;-0.140;2023-09-07T12:05:33;5.50;;;5.10;;
19505;SDS011;9894;50.852;-0.140;2023-09-07T12:08:00;5.72;;;5.22;;
19505;SDS011;9894;50.852;-0.140;2023-09-07T12:10:26;5.05;;;4.75;;
19505;SDS011;9894;50.852;-0.140;2023-09-07T12:12:52;5.63;;;5.32;;
19505;SDS011;9894;50.852;-0.140;2023-09-07T12:15:18;5.47;;;5.10;;
19505;SDS011;9894;50.852;-0.140;2023-09-07T12:17:44;5.50;;;5.20;;
19505;SDS011;9894;50.852;-0.140;2023-09-07T12:20:11;5.70;;;5.20;;
19505;SDS011;9894;50.852;-0.140;2023-09-07T12:22:39;5.70;;;5.40;;
19505;SDS011;9894;50.852;-0.140;2023-09-07T12:25:06;5.10;;;4.80;;
19505;SDS011;9894;50.852;-0.140;2023-09-07T12:27:33;6.28;;;5.78;;
19505;SDS011;9894;50.852;-0.140;2023-09-07T12:30:00;5.28;;;4.97;;
19505;SDS011;9894;50.852;-0.140;2023-09-07T12:32:42;5.05;;;4.75;;
19505;SDS011;9894;50.852;-0.140;2023-09-07T12:35:09;5.50;;;5.13;;
19505;SDS011;9894;50.852;-0.140;2023-09-07T12:37:35;5.90;;;5.50;;
19505;SDS011;9894;50.852;-0.140;2023-09-07T12:40:05;5.35;;;5.00;;
19505;SDS011;9894;50.852;-0.140;2023-09-07T12:42:49;6.22;;;5.72;;
19505;SDS011;9894;50.852;-0.140;2023-09-07T12:45:15;5.70;;;5.30;;
19505;SDS011;9894;50.852;-0.140;2023-09-07T12:47:42;6.10;;;5.70;;
19505;SDS011;9894;50.852;-0.140;2023-09-07T12:50:08;5.63;;;5.32;;
19505;SDS011;9894;50.852;-0.140;2023-09-07T12:52:34;6.57;;;6.10;;
19505;SDS011;9894;50.852;-0.140;2023-09-07T12:55:04;7.18;;;6.63;;
19505;SDS011;9894;50.852;-0.140;2023-09-07T12:57:31;5.55;;;5.25;;
19505;SDS011;9894;50.852;-0.140;2023-09-07T12:59:57;5.70;;;5.32;;
19505;SDS011;9894;50.852;-0.140;2023-09-07T13:02:23;4.90;;;4.60;;
19505;SDS011;9894;50.852;-0.140;2023-09-07T13:04:49;5.47;;;5.10;;
19505;SDS011;9894;50.852;-0.140;2023-09-07T13:07:16;5.07;;;4.78;;
19505;SDS011;9894;50.852;-0.140;2023-09-07T13:09:43;5.35;;;5.05;;
19505;SDS011;9894;50.852;-0.140;2023-09-07T13:12:10;5.18;;;4.88;;
19505;SDS011;9894;50.852;-0.140;2023-09-07T13:14:36;5.15;;;4.85;;
19505;SDS011;9894;50.852;-0.140;2023-09-07T13:17:02;5.05;;;4.75;;
19505;SDS011;9894;50.852;-0.140;2023-09-07T13:19:29;5.10;;;4.80;;
19505;SDS011;9894;50.852;-0.140;2023-09-07T13:21:55;4.68;;;4.38;;
19505;SDS011;9894;50.852;-0.140;2023-09-07T13:24:21;4.72;;;4.43;;
19505;SDS011;9894;50.852;-0.140;2023-09-07T13:26:48;4.80;;;4.50;;
19505;SDS011;9894;50.852;-0.140;2023-09-07T13:29:14;5.38;;;5.07;;
19505;SDS011;9894;50.852;-0.140;2023-09-07T13:31:41;4.90;;;4.60;;
19505;SDS011;9894;50.852;-0.140;2023-09-07T13:34:07;5.30;;;5.00;;
19505;SDS011;9894;50.852;-0.140;2023-09-07T13:36:33;5.03;;;4.72;;
19505;SDS011;9894;50.852;-0.140;2023-09-07T13:38:59;5.28;;;4.97;;
19505;SDS011;9894;50.852;-0.140;2023-09-07T13:41:26;5.13;;;4.82;;
19505;SDS011;9894;50.852;-0.140;2023-09-07T13:43:52;5.30;;;5.00;;
19505;SDS011;9894;50.852;-0.140;2023-09-07T13:46:19;5.70;;;5.35;;
19505;SDS011;9894;50.852;-0.140;2023-09-07T13:48:45;5.10;;;4.80;;
19505;SDS011;9894;50.852;-0.140;2023-09-07T13:51:11;5.13;;;4.82;;
19505;SDS011;9894;50.852;-0.140;2023-09-07T13:53:38;4.70;;;4.40;;
19505;SDS011;9894;50.852;-0.140;2023-09-07T13:56:04;5.00;;;4.70;;
19505;SDS011;9894;50.852;-0.140;2023-09-07T13:58:30;5.30;;;5.00;;
19505;SDS011;9894;50.852;-0.140;2023-09-07T14:00:56;5.70;;;5.30;;
19505;SDS011;9894;50.852;-0.140;2023-09-07T14:03:22;5.40;;;5.10;;
19505;SDS011;9894;50.852;-0.140;2023-09-07T14:05:49;4.90;;;4.60;;
19505;SDS011;9894;50.852;-0.140;2023-09-07T14:08:16;5.13;;;4.82;;
19505;SDS011;9894;50.852;-0.140;2023-09-07T14:10:48;6.00;;;5.60;;
19505;SDS011;9894;50.852;-0.140;2023-09-07T14:13:14;5.57;;;5.28;;
19505;SDS011;9894;50.852;-0.140;2023-09-07T14:15:40;6.03;;;5.63;;
19505;SDS011;9894;50.852;-0.140;2023-09-07T14:18:07;6.63;;;6.22;;
19505;SDS011;9894;50.852;-0.140;2023-09-07T14:20:33;6.47;;;6.07;;
19505;SDS011;9894;50.852;-0.140;2023-09-07T14:23:00;19.55;;;8.15;;
19505;SDS011;9894;50.852;-0.140;2023-09-07T14:25:26;6.53;;;6.13;;
19505;SDS011;9894;50.852;-0.140;2023-09-07T14:27:53;6.00;;;5.60;;
19505;SDS011;9894;50.852;-0.140;2023-09-07T14:30:19;7.15;;;6.65;;
19505;SDS011;9894;50.852;-0.140;2023-09-07T14:32:45;6.97;;;6.47;;
19505;SDS011;9894;50.852;-0.140;2023-09-07T14:35:12;6.28;;;5.88;;
19505;SDS011;9894;50.852;-0.140;2023-09-07T14:37:38;6.15;;;5.75;;
19505;SDS011;9894;50.852;-0.140;2023-09-07T14:40:05;6.68;;;6.28;;
19505;SDS011;9894;50.852;-0.140;2023-09-07T14:42:33;6.13;;;5.72;;
19505;SDS011;9894;50.852;-0.140;2023-09-07T14:44:59;7.30;;;6.80;;
19505;SDS011;9894;50.852;-0.140;2023-09-07T14:47:30;6.80;;;6.30;;
19505;SDS011;9894;50.852;-0.140;2023-09-07T14:49:56;6.13;;;5.72;;